Time;durP1;ratioP1;P1;durP2;ratioP2;P2;SDS_P1;SDS_P2;PMS_P1;PMS_P2;Temp;Humidity;BMP_temperature;BMP_pressure;BME280_temperature;BME280_humidity;BME280_pressure;Samples;Min_cycle;Max_cycle;Signal;HPM_P1;HPM_P2
2023/07/02 00:01:23;;;;;;;6.22;4.10;;;19.90;99.90;;;;;;5037228;28;20029;-91
2023/07/02 00:03:48;;;;;;;6.70;4.15;;;19.90;99.90;;;;;;5038675;28;20028;-91
2023/07/02 00:06:14;;;;;;;9.52;4.75;;;19.80;99.90;;;;;;5035966;28;20056;-92
2023/07/02 00:08:40;;;;;;;6.95;4.28;;;19.80;99.90;;;;;;5036778;28;20037;-92
2023/07/02 00:11:06;;;;;;;5.30;4.30;;;19.70;99.90;;;;;;5038689;28;20022;-90
2023/07/02 00:13:32;;;;;;;4.95;3.80;;;19.70;99.90;;;;;;5057386;28;20029;-91
2023/07/02 00:15:58;;;;;;;5.63;4.03;;;19.60;99.90;;;;;;5058836;28;20040;-89
2023/07/02 00:18:28;;;;;;;5.65;4.25;;;19.60;99.90;;;;;;5045249;28;20501;-91
2023/07/02 00:20:54;;;;;;;6.70;4.43;;;19.60;99.90;;;;;;5036592;28;20024;-90
2023/07/02 00:23:21;;;;;;;12.13;4.75;;;19.70;99.90;;;;;;5036339;28;20029;-91
2023/07/02 00:25:46;;;;;;;4.65;3.95;;;19.70;99.90;;;;;;5033484;28;20050;-91
2023/07/02 00:28:12;;;;;;;4.63;3.95;;;19.70;99.90;;;;;;5034150;28;20076;-92
2023/07/02 00:30:38;;;;;;;7.10;4.30;;;19.70;99.90;;;;;;5034694;28;20133;-91
2023/07/02 00:33:03;;;;;;;5.60;4.13;;;19.70;99.90;;;;;;5034291;28;20057;-91
2023/07/02 00:35:29;;;;;;;10.70;4.03;;;19.70;99.90;;;;;;5034198;28;20512;-91
2023/07/02 00:37:55;;;;;;;6.68;4.53;;;19.70;99.90;;;;;;5034019;28;20070;-90
2023/07/02 00:40:20;;;;;;;9.52;4.15;;;19.70;99.90;;;;;;5034255;28;20034;-91
2023/07/02 00:42:46;;;;;;;5.45;4.15;;;19.70;99.90;;;;;;5035303;28;20025;-90
2023/07/02 00:45:11;;;;;;;5.47;4.30;;;19.80;99.90;;;;;;5034067;28;20525;-91
2023/07/02 00:47:37;;;;;;;5.13;4.10;;;19.80;99.90;;;;;;5034917;28;20021;-90
2023/07/02 00:50:04;;;;;;;6.70;4.15;;;19.80;99.90;;;;;;5035674;28;20083;-93
2023/07/02 00:52:30;;;;;;;6.63;4.43;;;19.80;99.90;;;;;;5034475;28;20104;-92
2023/07/02 00:54:55;;;;;;;8.57;4.78;;;19.80;99.90;;;;;;5035027;28;20446;-90
2023/07/02 00:57:21;;;;;;;7.40;4.05;;;19.80;99.90;;;;;;5034756;28;20025;-90
2023/07/02 00:59:47;;;;;;;7.03;4.75;;;19.90;99.90;;;;;;5033371;28;20092;-91
2023/07/02 01:02:12;;;;;;;8.18;4.38;;;19.90;99.90;;;;;;5034263;28;20025;-91
2023/07/02 01:04:39;;;;;;;6.47;4.60;;;19.90;99.90;;;;;;5033225;28;20379;-92
2023/07/02 01:07:09;;;;;;;8.35;4.55;;;19.90;99.90;;;;;;5034604;28;20516;-91
2023/07/02 01:09:36;;;;;;;14.85;4.28;;;19.90;99.90;;;;;;5034125;28;20088;-90
2023/07/02 01:12:08;;;;;;;8.30;4.28;;;19.90;99.90;;;;;;5034233;28;20104;-92
2023/07/02 01:14:41;;;;;;;7.30;4.07;;;19.90;99.90;;;;;;5031726;28;20107;-91
2023/07/02 01:17:07;;;;;;;5.10;4.13;;;19.90;99.90;;;;;;5033031;28;20045;-91
2023/07/02 01:19:58;;;;;;;7.70;4.90;;;19.90;99.90;;;;;;5033516;28;20486;-91
2023/07/02 01:22:28;;;;;;;6.97;4.53;;;19.80;99.90;;;;;;5033363;28;20126;-91
2023/07/02 01:24:54;;;;;;;10.43;4.20;;;19.90;99.90;;;;;;5033006;28;20032;-92
2023/07/02 01:27:21;;;;;;;5.70;4.30;;;19.80;99.90;;;;;;5033028;28;20068;-91
2023/07/02 01:29:50;;;;;;;5.43;4.20;;;19.90;99.90;;;;;;5033314;28;20021;-91
2023/07/02 01:32:16;;;;;;;7.63;4.65;;;19.80;99.90;;;;;;5034220;28;20449;-93
2023/07/02 01:34:48;;;;;;;10.32;4.28;;;19.80;99.90;;;;;;5033342;28;20029;-93
2023/07/02 01:37:18;;;;;;;6.22;4.43;;;19.80;99.90;;;;;;5034052;28;20029;-92
2023/07/02 01:39:43;;;;;;;9.23;3.85;;;19.80;99.90;;;;;;5039906;28;20529;-93
2023/07/02 01:42:18;;;;;;;9.05;4.25;;;19.70;99.90;;;;;;5034416;28;20048;-91
2023/07/02 01:44:44;;;;;;;7.00;4.30;;;19.70;99.90;;;;;;5031873;28;20079;-92
2023/07/02 01:47:10;;;;;;;8.57;5.25;;;19.70;99.90;;;;;;5032903;28;20504;-91
2023/07/02 01:49:37;;;;;;;8.50;4.78;;;19.60;99.90;;;;;;5032882;28;20033;-93
2023/07/02 01:52:04;;;;;;;5.25;4.55;;;19.50;99.90;;;;;;5033117;28;20048;-91
2023/07/02 01:54:31;;;;;;;6.45;5.38;;;19.40;99.90;;;;;;5040654;28;20051;-90
2023/07/02 01:56:58;;;;;;;6.65;5.00;;;19.50;99.90;;;;;;5047348;28;20022;-91
2023/07/02 01:59:24;;;;;;;7.50;5.07;;;19.40;99.90;;;;;;5034198;28;20021;-91
2023/07/02 02:01:50;;;;;;;9.13;5.68;;;19.40;99.90;;;;;;5031952;28;20037;-91
2023/07/02 02:04:16;;;;;;;9.23;5.15;;;19.30;99.90;;;;;;5032129;28;20033;-90
2023/07/02 02:06:42;;;;;;;18.25;5.47;;;19.30;99.90;;;;;;5033718;28;20068;-93
2023/07/02 02:09:09;;;;;;;6.85;5.07;;;19.20;99.90;;;;;;5033768;28;20033;-91
2023/07/02 02:11:38;;;;;;;7.88;5.38;;;19.20;99.90;;;;;;5032470;28;20029;-92
2023/07/02 02:14:04;;;;;;;8.55;5.93;;;19.10;99.90;;;;;;5032369;28;20080;-90
2023/07/02 02:16:29;;;;;;;11.85;5.90;;;19.10;99.90;;;;;;5033956;28;20390;-92
2023/07/02 02:18:55;;;;;;;9.05;5.90;;;19.10;99.90;;;;;;5032491;28;20473;-91
2023/07/02 02:21:21;;;;;;;13.02;5.55;;;19.10;99.90;;;;;;5033008;28;20024;-89
2023/07/02 02:23:47;;;;;;;7.57;5.20;;;19.00;99.90;;;;;;5033426;28;20037;-91
2023/07/02 02:26:14;;;;;;;7.07;5.18;;;19.00;99.90;;;;;;5032157;28;20025;-90
2023/07/02 02:28:40;;;;;;;8.30;6.13;;;18.90;99.90;;;;;;5033417;28;20122;-93
2023/07/02 02:31:06;;;;;;;5.80;5.15;;;18.90;99.90;;;;;;5036853;28;20100;-95
2023/07/02 02:33:32;;;;;;;9.90;6.20;;;19.00;99.90;;;;;;5035517;28;20045;-96
2023/07/02 02:35:58;;;;;;;9.10;5.72;;;18.90;99.90;;;;;;5033848;28;20025;-82
2023/07/02 02:38:23;;;;;;;6.47;5.78;;;18.90;99.90;;;;;;5032034;28;20116;-93
2023/07/02 02:40:49;;;;;;;7.63;6.47;;;18.90;99.90;;;;;;5032946;28;20441;-93
2023/07/02 02:43:16;;;;;;;7.75;5.85;;;18.90;99.90;;;;;;5033251;28;20479;-93
2023/07/02 02:45:42;;;;;;;9.57;5.82;;;18.80;99.90;;;;;;5033220;28;20139;-94
2023/07/02 02:48:08;;;;;;;9.80;6.53;;;18.80;99.90;;;;;;5034919;28;20037;-92
2023/07/02 02:50:34;;;;;;;9.50;5.63;;;18.70;99.90;;;;;;5035812;28;20032;-93
2023/07/02 02:52:59;;;;;;;8.57;5.32;;;18.80;99.90;;;;;;5036029;28;20040;-93
2023/07/02 02:55:26;;;;;;;11.93;6.88;;;18.70;99.90;;;;;;5036149;28;20021;-92
2023/07/02 02:57:51;;;;;;;10.23;6.10;;;18.80;99.90;;;;;;5036179;28;20021;-92
2023/07/02 03:00:17;;;;;;;5.72;5.22;;;18.80;99.90;;;;;;5036837;28;20041;-93
2023/07/02 03:02:43;;;;;;;12.10;5.55;;;18.80;99.90;;;;;;5035658;28;20026;-92
2023/07/02 03:05:09;;;;;;;8.93;6.60;;;18.70;99.90;;;;;;5035669;28;20080;-93
2023/07/02 03:07:35;;;;;;;8.65;5.95;;;18.70;99.90;;;;;;5035757;28;20036;-94
2023/07/02 03:10:01;;;;;;;11.95;6.45;;;18.80;99.90;;;;;;5035686;28;20025;-93
2023/07/02 03:12:27;;;;;;;7.40;6.70;;;18.80;99.90;;;;;;5035889;28;20052;-94
2023/07/02 03:14:54;;;;;;;7.68;6.53;;;18.80;99.90;;;;;;5035857;28;20025;-93
2023/07/02 03:17:20;;;;;;;14.07;6.68;;;18.70;99.90;;;;;;5035765;28;20383;-93
2023/07/02 03:19:46;;;;;;;7.57;6.15;;;18.80;99.90;;;;;;5037427;28;20139;-94
2023/07/02 03:22:12;;;;;;;6.53;5.93;;;18.80;99.90;;;;;;5036465;28;20026;-93
2023/07/02 03:24:38;;;;;;;6.75;6.05;;;18.80;99.90;;;;;;5037775;28;20028;-93
2023/07/02 03:27:04;;;;;;;7.35;6.07;;;18.90;99.90;;;;;;5037836;28;20488;-94
2023/07/02 03:29:30;;;;;;;6.75;6.05;;;18.90;99.90;;;;;;5037367;28;20033;-94
2023/07/02 03:31:55;;;;;;;6.55;5.85;;;18.90;99.90;;;;;;5037076;28;20405;-94
2023/07/02 03:34:23;;;;;;;8.15;6.05;;;18.90;99.90;;;;;;5036782;28;20116;-93
2023/07/02 03:36:49;;;;;;;9.20;6.20;;;19.00;99.90;;;;;;5037478;28;20109;-94
2023/07/02 03:39:15;;;;;;;6.97;5.97;;;19.00;99.90;;;;;;5046290;28;20021;-93
2023/07/02 03:41:40;;;;;;;7.40;6.10;;;19.00;99.90;;;;;;5039306;28;20486;-94
2023/07/02 03:44:06;;;;;;;12.68;6.07;;;19.00;99.90;;;;;;5045493;28;20029;-93
2023/07/02 03:46:32;;;;;;;11.90;6.18;;;19.00;99.90;;;;;;5057697;28;20093;-94
2023/07/02 03:48:57;;;;;;;8.05;5.55;;;19.10;99.90;;;;;;5056148;28;20025;-93
2023/07/02 03:51:23;;;;;;;7.10;6.40;;;19.10;99.90;;;;;;5054856;28;20116;-93
2023/07/02 03:53:49;;;;;;;8.68;6.93;;;19.10;99.90;;;;;;5036480;28;20029;-93
2023/07/02 03:56:15;;;;;;;10.88;6.15;;;19.10;99.90;;;;;;5037032;28;20608;-93
2023/07/02 03:58:41;;;;;;;8.82;6.43;;;19.10;99.90;;;;;;5034802;28;20033;-93
2023/07/02 04:01:06;;;;;;;9.48;6.68;;;19.20;99.90;;;;;;5033921;28;20021;-93
2023/07/02 04:03:32;;;;;;;6.45;5.85;;;19.20;99.90;;;;;;5035256;28;20083;-93
2023/07/02 04:05:58;;;;;;;7.95;6.40;;;19.30;99.90;;;;;;5042801;28;20050;-92
2023/07/02 04:08:28;;;;;;;8.02;6.07;;;19.40;99.90;;;;;;5057035;28;20180;-92
2023/07/02 04:10:54;;;;;;;8.75;6.03;;;19.50;99.90;;;;;;5037713;28;20083;-94
2023/07/02 04:13:20;;;;;;;8.40;6.13;;;19.50;99.90;;;;;;5037251;28;20048;-92
2023/07/02 04:15:45;;;;;;;8.18;6.28;;;19.60;99.90;;;;;;5035347;28;20497;-92
2023/07/02 04:18:11;;;;;;;12.50;6.22;;;19.60;99.90;;;;;;5035624;28;20056;-93
2023/07/02 04:20:39;;;;;;;7.90;6.00;;;19.70;99.90;;;;;;5034616;28;20028;-94
2023/07/02 04:23:06;;;;;;;6.88;5.20;;;19.70;99.90;;;;;;5036464;28;20022;-94
2023/07/02 04:25:31;;;;;;;7.97;5.72;;;19.80;99.90;;;;;;5034296;28;20033;-92
2023/07/02 04:27:58;;;;;;;6.10;5.50;;;19.90;99.90;;;;;;5035264;28;20112;-92
2023/07/02 04:30:25;;;;;;;9.43;5.75;;;20.00;99.90;;;;;;5036425;28;20029;-93
2023/07/02 04:32:51;;;;;;;7.28;6.45;;;20.00;99.90;;;;;;5036668;28;20025;-94
2023/07/02 04:35:16;;;;;;;7.68;6.07;;;20.10;99.90;;;;;;5035604;28;20022;-92
2023/07/02 04:37:42;;;;;;;10.75;6.95;;;20.20;99.90;;;;;;5036503;28;20025;-93
2023/07/02 04:40:11;;;;;;;7.03;6.10;;;20.30;99.90;;;;;;5036603;28;20026;-92
2023/07/02 04:42:38;;;;;;;10.35;7.30;;;20.40;99.90;;;;;;5034780;28;20036;-94
2023/07/02 04:45:08;;;;;;;12.65;6.80;;;20.50;99.90;;;;;;5036275;28;20032;-94
2023/07/02 04:47:34;;;;;;;7.13;5.50;;;20.60;99.90;;;;;;5035690;28;20025;-94
2023/07/02 04:50:00;;;;;;;6.20;5.57;;;20.70;99.90;;;;;;5035361;28;20029;-91
2023/07/02 04:52:26;;;;;;;9.63;6.60;;;20.80;99.90;;;;;;5035214;28;20076;-91
2023/07/02 04:54:52;;;;;;;12.20;8.02;;;21.00;99.90;;;;;;5035487;28;20037;-91
2023/07/02 04:57:18;;;;;;;7.97;5.85;;;21.10;99.90;;;;;;5033996;28;20017;-91
2023/07/02 04:59:44;;;;;;;7.93;5.28;;;21.30;99.90;;;;;;5035271;28;20045;-91
2023/07/02 05:02:10;;;;;;;7.00;5.15;;;21.50;99.90;;;;;;5033761;28;20053;-90
2023/07/02 05:04:39;;;;;;;8.80;5.65;;;21.70;99.90;;;;;;5034749;28;20486;-91
2023/07/02 05:07:05;;;;;;;7.95;5.40;;;21.80;99.90;;;;;;5035373;28;20029;-92
2023/07/02 05:09:31;;;;;;;6.47;4.78;;;22.00;99.90;;;;;;5034279;28;20559;-90
2023/07/02 05:11:57;;;;;;;6.60;5.18;;;22.10;99.90;;;;;;5033981;28;20032;-91
2023/07/02 05:14:23;;;;;;;12.25;5.38;;;22.30;99.90;;;;;;5033484;28;20060;-90
2023/07/02 05:16:48;;;;;;;6.38;4.65;;;22.50;99.90;;;;;;5034267;28;20478;-90
2023/07/02 05:19:14;;;;;;;5.40;4.90;;;22.60;99.90;;;;;;5034594;28;20032;-91
2023/07/02 05:21:40;;;;;;;5.00;4.50;;;22.70;99.90;;;;;;5034574;28;20030;-90
2023/07/02 05:24:07;;;;;;;5.43;4.82;;;22.90;99.90;;;;;;5033170;28;20057;-90
2023/07/02 05:26:33;;;;;;;5.07;4.57;;;23.10;99.90;;;;;;5034972;28;20033;-89
2023/07/02 05:28:59;;;;;;;6.70;4.82;;;23.50;99.90;;;;;;5034324;28;20414;-91
2023/07/02 05:31:24;;;;;;;6.40;5.00;;;23.70;99.90;;;;;;5033241;28;20025;-91
2023/07/02 05:33:50;;;;;;;7.10;4.65;;;23.80;99.90;;;;;;5041498;28;20072;-91
2023/07/02 05:36:16;;;;;;;9.00;4.55;;;23.90;99.90;;;;;;5035756;28;20568;-92
2023/07/02 05:38:41;;;;;;;12.27;4.53;;;23.90;99.90;;;;;;5033931;28;20477;-93
2023/07/02 05:41:07;;;;;;;7.60;4.32;;;24.00;99.90;;;;;;5033254;28;20056;-91
2023/07/02 05:43:33;;;;;;;7.40;4.03;;;24.20;99.90;;;;;;5035075;28;20029;-93
2023/07/02 05:46:00;;;;;;;9.85;3.78;;;24.40;99.90;;;;;;5034118;28;20358;-90
2023/07/02 05:48:26;;;;;;;6.15;4.10;;;24.80;99.90;;;;;;5034009;28;20026;-93
2023/07/02 05:50:52;;;;;;;12.50;5.07;;;25.20;99.90;;;;;;5035974;28;20026;-91
2023/07/02 05:53:18;;;;;;;11.32;4.75;;;25.70;98.30;;;;;;5031929;28;20086;-92
2023/07/02 05:55:44;;;;;;;5.78;4.38;;;26.00;96.70;;;;;;5033643;28;20057;-91
2023/07/02 05:58:10;;;;;;;7.03;4.43;;;26.20;96.00;;;;;;5033138;28;20026;-91
2023/07/02 06:00:35;;;;;;;6.03;4.18;;;26.50;95.60;;;;;;5033610;28;20025;-91
2023/07/02 06:03:01;;;;;;;10.07;4.63;;;27.20;94.50;;;;;;5033418;28;20033;-92
2023/07/02 06:05:27;;;;;;;6.40;4.13;;;28.60;90.30;;;;;;5032211;28;20060;-90
2023/07/02 06:07:52;;;;;;;5.45;3.60;;;29.80;82.30;;;;;;5032014;28;20040;-88
2023/07/02 06:10:18;;;;;;;5.90;4.07;;;31.00;73.50;;;;;;5032196;28;20032;-88
2023/07/02 06:12:44;;;;;;;5.70;3.30;;;32.10;68.20;;;;;;5033038;28;20124;-91
2023/07/02 06:15:10;;;;;;;8.90;4.40;;;32.90;63.50;;;;;;5032633;28;20116;-92
2023/07/02 06:17:36;;;;;;;4.75;3.75;;;33.50;60.00;;;;;;5034800;28;20025;-90
2023/07/02 06:20:06;;;;;;;11.75;4.65;;;34.10;57.90;;;;;;5046562;28;20026;-88
2023/07/02 06:22:32;;;;;;;6.82;4.28;;;34.60;56.30;;;;;;5045602;28;20044;-91
2023/07/02 06:24:57;;;;;;;10.52;4.50;;;35.20;54.50;;;;;;5038227;28;20029;-91
2023/07/02 06:27:23;;;;;;;6.70;4.00;;;35.60;52.80;;;;;;5032087;28;20116;-89
2023/07/02 06:29:50;;;;;;;6.93;3.53;;;36.10;51.00;;;;;;5032917;28;20045;-90
2023/07/02 06:32:16;;;;;;;5.53;3.95;;;36.30;49.80;;;;;;5032570;28;20032;-90
2023/07/02 06:34:42;;;;;;;7.85;3.97;;;36.40;48.60;;;;;;5030942;28;20021;-89
2023/07/02 06:37:07;;;;;;;7.38;4.35;;;36.70;47.00;;;;;;5033204;28;20032;-91
2023/07/02 06:39:33;;;;;;;9.35;4.97;;;36.90;46.50;;;;;;5034642;28;20508;-89
2023/07/02 06:41:59;;;;;;;10.13;5.00;;;36.80;46.10;;;;;;5033287;28;20033;-90
2023/07/02 06:44:25;;;;;;;8.43;4.75;;;36.60;46.30;;;;;;5032977;28;20044;-90
2023/07/02 06:46:50;;;;;;;8.30;4.95;;;36.60;46.70;;;;;;5033317;28;20028;-90
2023/07/02 06:49:19;;;;;;;5.65;4.85;;;36.60;46.20;;;;;;5031343;28;20041;-90
2023/07/02 06:51:45;;;;;;;13.52;4.60;;;36.80;45.60;;;;;;5030925;28;20030;-88
2023/07/02 06:54:11;;;;;;;9.25;5.00;;;36.90;45.90;;;;;;5032701;28;20025;-89
2023/07/02 06:56:37;;;;;;;9.48;5.38;;;37.00;45.80;;;;;;5032462;28;20049;-89
2023/07/02 06:59:03;;;;;;;7.60;5.65;;;37.40;43.40;;;;;;5033880;28;20032;-87
2023/07/02 07:01:29;;;;;;;8.90;5.28;;;37.00;44.00;;;;;;5033816;28;20482;-88
2023/07/02 07:03:54;;;;;;;6.25;4.88;;;36.90;44.30;;;;;;5032218;28;20037;-90
2023/07/02 07:06:20;;;;;;;10.95;4.93;;;37.00;44.20;;;;;;5033100;28;20053;-89
2023/07/02 07:08:46;;;;;;;10.25;5.05;;;36.90;44.80;;;;;;5032049;28;20037;-89
2023/07/02 07:11:11;;;;;;;5.78;5.10;;;37.10;44.40;;;;;;5033001;28;20394;-91
2023/07/02 07:13:37;;;;;;;6.45;4.80;;;37.00;44.80;;;;;;5048515;28;20025;-87
2023/07/02 07:16:03;;;;;;;9.82;5.38;;;36.90;44.50;;;;;;5055784;28;20018;-89
2023/07/02 07:18:29;;;;;;;10.50;5.78;;;36.80;45.30;;;;;;5048245;28;20029;-90
2023/07/02 07:20:55;;;;;;;6.68;5.60;;;37.20;44.80;;;;;;5034820;28;20127;-89
2023/07/02 07:23:21;;;;;;;6.82;5.68;;;37.30;43.90;;;;;;5033863;28;20037;-89
2023/07/02 07:25:47;;;;;;;6.82;5.70;;;36.80;45.50;;;;;;5031782;28;20393;-87
2023/07/02 07:28:15;;;;;;;8.32;5.88;;;37.00;45.20;;;;;;5033671;28;20034;-89
2023/07/02 07:30:41;;;;;;;10.13;5.70;;;36.90;45.80;;;;;;5036643;28;20029;-89
2023/07/02 07:33:07;;;;;;;8.57;6.05;;;36.60;45.80;;;;;;5031858;28;20393;-89
2023/07/02 07:35:33;;;;;;;8.10;5.65;;;36.60;46.40;;;;;;5035891;28;20029;-90
2023/07/02 07:37:58;;;;;;;11.07;6.05;;;36.90;46.30;;;;;;5036120;28;20564;-89
2023/07/02 07:40:24;;;;;;;7.72;5.60;;;36.90;46.80;;;;;;5038279;28;20063;-90
2023/07/02 07:42:50;;;;;;;9.48;5.97;;;37.20;45.70;;;;;;5036155;28;20028;-89
2023/07/02 07:45:15;;;;;;;8.27;5.90;;;37.30;45.20;;;;;;5036866;28;20029;-86
2023/07/02 07:47:41;;;;;;;9.90;5.68;;;37.40;45.40;;;;;;5040996;28;20100;-88
2023/07/02 07:50:10;;;;;;;10.82;6.15;;;37.50;45.00;;;;;;5038478;28;20025;-89
2023/07/02 07:52:42;;;;;;;7.95;6.07;;;37.20;45.50;;;;;;5042002;28;20033;-87
2023/07/02 07:55:08;;;;;;;13.27;6.93;;;37.10;45.50;;;;;;5038830;28;20053;-90
2023/07/02 07:57:36;;;;;;;9.38;6.25;;;36.90;45.30;;;;;;5037964;28;20029;-89
2023/07/02 08:00:04;;;;;;;7.18;5.50;;;37.00;45.20;;;;;;5034417;28;20028;-87
2023/07/02 08:02:30;;;;;;;6.90;5.80;;;37.10;44.50;;;;;;5034591;28;20033;-88
2023/07/02 08:04:56;;;;;;;9.95;6.35;;;37.40;45.20;;;;;;5036065;28;20541;-89
2023/07/02 08:07:21;;;;;;;6.90;5.68;;;37.50;43.90;;;;;;5035776;28;20029;-89
2023/07/02 08:09:48;;;;;;;10.88;5.55;;;37.60;43.80;;;;;;5037542;28;20493;-89
2023/07/02 08:12:13;;;;;;;8.15;5.90;;;37.70;42.90;;;;;;5036128;28;20029;-90
2023/07/02 08:14:39;;;;;;;7.90;6.70;;;37.60;44.20;;;;;;5037045;28;20032;-87
2023/07/02 08:17:05;;;;;;;8.57;5.47;;;37.60;43.90;;;;;;5036269;28;20083;-89
2023/07/02 08:19:30;;;;;;;9.63;6.18;;;36.70;44.80;;;;;;5035101;28;20025;-88
2023/07/02 08:21:56;;;;;;;11.15;5.57;;;36.20;44.60;;;;;;5034016;28;20113;-88
2023/07/02 08:24:21;;;;;;;6.63;5.93;;;35.90;45.10;;;;;;5035151;28;20048;-89
2023/07/02 08:26:49;;;;;;;8.18;5.47;;;35.90;45.70;;;;;;5034872;28;20025;-88
2023/07/02 08:29:15;;;;;;;8.73;6.53;;;36.50;42.70;;;;;;5034559;28;20079;-87
2023/07/02 08:31:41;;;;;;;10.25;6.45;;;36.80;41.00;;;;;;5036753;28;20037;-88
2023/07/02 08:34:07;;;;;;;5.82;4.85;;;36.80;40.80;;;;;;5040648;28;20048;-87
2023/07/02 08:36:32;;;;;;;6.63;4.88;;;37.10;40.00;;;;;;5034960;28;20033;-88
2023/07/02 08:38:58;;;;;;;5.88;4.78;;;37.40;39.50;;;;;;5033996;28;20029;-90
2023/07/02 08:41:24;;;;;;;6.90;4.78;;;37.60;39.00;;;;;;5033684;28;20029;-88
2023/07/02 08:43:51;;;;;;;6.93;4.78;;;37.40;38.50;;;;;;5034984;28;20032;-89
2023/07/02 08:46:17;;;;;;;5.65;4.90;;;36.80;37.80;;;;;;5033777;28;20117;-88
2023/07/02 08:48:43;;;;;;;7.07;4.70;;;36.70;38.10;;;;;;5033685;28;20029;-89
2023/07/02 08:51:09;;;;;;;7.07;4.30;;;36.70;37.30;;;;;;5033713;28;20037;-90
2023/07/02 08:53:35;;;;;;;5.90;4.55;;;36.80;37.60;;;;;;5033419;28;20061;-89
2023/07/02 08:56:02;;;;;;;9.93;4.57;;;36.40;37.50;;;;;;5033265;28;20470;-86
2023/07/02 08:58:28;;;;;;;8.88;5.40;;;36.70;37.40;;;;;;5033043;28;20026;-90
2023/07/02 09:01:11;;;;;;;5.85;4.97;;;36.50;37.60;;;;;;5033041;28;20087;-90
2023/07/02 09:03:38;;;;;;;6.38;4.43;;;36.60;39.00;;;;;;5033300;28;20056;-87
2023/07/02 09:06:05;;;;;;;7.53;4.25;;;37.00;38.80;;;;;;5033086;28;20141;-86
2023/07/02 09:08:33;;;;;;;6.70;4.13;;;37.20;37.20;;;;;;5032846;28;20033;-89
2023/07/02 09:11:25;;;;;;;13.43;10.85;;;36.90;35.20;;;;;;5032823;28;20552;-88
2023/07/02 09:13:53;;;;;;;12.43;10.88;;;36.00;37.40;;;;;;5031423;28;20026;-88
2023/07/02 09:16:26;;;;;;;8.57;5.82;;;35.40;38.80;;;;;;5031366;28;20030;-90
2023/07/02 09:19:07;;;;;;;5.88;4.78;;;35.30;40.20;;;;;;5031896;28;20509;-89
2023/07/02 09:21:42;;;;;;;5.50;4.78;;;35.80;41.40;;;;;;5033474;28;20029;-90
2023/07/02 09:24:27;;;;;;;;;;;36.20;41.10;;;;;;5037933;28;20018;-89
2023/07/02 09:26:54;;;;;;;6.15;4.65;;;36.00;38.80;;;;;;5034068;28;19996;-89
2023/07/02 09:29:25;;;;;;;7.63;4.85;;;35.40;40.60;;;;;;5032436;28;20044;-90
2023/07/02 09:31:50;;;;;;;7.15;4.43;;;34.90;40.50;;;;;;5032556;28;20076;-89
2023/07/02 09:34:16;;;;;;;8.93;5.05;;;34.80;41.50;;;;;;5033798;28;20025;-90
2023/07/02 09:36:43;;;;;;;5.65;4.18;;;35.20;41.30;;;;;;5032551;28;20057;-84
2023/07/02 09:39:13;;;;;;;12.77;5.00;;;35.50;41.80;;;;;;5033971;28;20029;-86
2023/07/02 09:41:42;;;;;;;6.43;4.85;;;35.80;41.00;;;;;;5034220;28;20032;-88
2023/07/02 09:44:10;;;;;;;5.50;4.30;;;35.90;40.40;;;;;;5032711;28;20036;-87
2023/07/02 09:46:41;;;;;;;6.85;3.75;;;36.20;40.30;;;;;;5032307;28;20025;-88
2023/07/02 09:49:08;;;;;;;6.53;4.70;;;36.30;39.60;;;;;;5032375;28;20417;-87
2023/07/02 09:51:34;;;;;;;5.68;4.63;;;36.60;40.40;;;;;;5032189;28;20026;-87
2023/07/02 09:53:59;;;;;;;4.60;3.63;;;36.50;40.00;;;;;;5032301;28;20033;-87
2023/07/02 09:56:25;;;;;;;7.32;4.15;;;36.10;39.90;;;;;;5034723;28;20025;-88
2023/07/02 09:58:51;;;;;;;10.10;3.80;;;35.80;41.20;;;;;;5033719;28;20106;-89
2023/07/02 10:01:17;;;;;;;4.70;3.63;;;35.80;41.40;;;;;;5034124;28;20472;-88
2023/07/02 10:03:42;;;;;;;8.82;3.55;;;36.00;40.10;;;;;;5033429;28;20025;-89
2023/07/02 10:06:08;;;;;;;6.53;3.88;;;36.00;40.10;;;;;;5033265;28;20125;-89
2023/07/02 10:08:34;;;;;;;5.40;3.55;;;35.80;40.60;;;;;;5032662;28;20037;-88
2023/07/02 10:11:13;;;;;;;3.60;2.97;;;35.20;41.30;;;;;;5032679;28;20049;-89
2023/07/02 10:13:39;;;;;;;5.00;3.17;;;34.80;41.30;;;;;;5032918;28;20033;-89
2023/07/02 10:16:06;;;;;;;6.68;3.25;;;34.50;42.20;;;;;;5032635;28;20030;-88
2023/07/02 10:18:32;;;;;;;7.78;3.22;;;34.20;41.50;;;;;;5032845;28;20023;-88
2023/07/02 10:20:58;;;;;;;4.88;2.85;;;33.70;41.50;;;;;;5034005;28;20025;-90
2023/07/02 10:23:36;;;;;;;5.97;3.42;;;33.40;42.00;;;;;;5034349;28;20025;-89
2023/07/02 10:26:19;;;;;;;6.95;2.67;;;33.10;41.40;;;;;;5033626;28;20371;-88
2023/07/02 10:29:00;;;;;;;5.05;3.20;;;32.90;42.30;;;;;;5034781;28;20045;-89
2023/07/02 10:31:26;;;;;;;4.25;3.00;;;32.80;42.70;;;;;;5033733;28;20064;-89
2023/07/02 10:33:52;;;;;;;11.70;2.90;;;32.60;41.40;;;;;;5033949;28;20034;-89
2023/07/02 10:36:20;;;;;;;6.65;2.85;;;32.50;41.50;;;;;;5034212;28;20025;-89
2023/07/02 10:38:46;;;;;;;12.23;2.60;;;32.30;41.10;;;;;;5033781;28;20474;-88
2023/07/02 10:41:22;;;;;;;6.25;3.05;;;32.20;40.80;;;;;;5034371;28;20072;-91
2023/07/02 10:43:47;;;;;;;7.15;3.03;;;32.00;41.60;;;;;;5043577;28;20039;-89
2023/07/02 10:46:19;;;;;;;5.38;3.03;;;31.90;41.90;;;;;;5054615;28;20021;-88
2023/07/02 10:48:55;;;;;;;3.60;2.97;;;31.80;40.90;;;;;;5050270;28;20059;-92
2023/07/02 10:51:21;;;;;;;;;;;31.70;42.40;;;;;;5034659;28;20112;-90
2023/07/02 10:53:58;;;;;;;6.00;3.17;;;31.50;43.50;;;;;;5032942;28;19905;-92
2023/07/02 10:56:26;;;;;;;6.93;3.65;;;31.30;45.00;;;;;;5032263;28;20060;-90
2023/07/02 10:58:52;;;;;;;5.85;3.88;;;31.20;45.00;;;;;;5034295;28;20026;-90
2023/07/02 11:01:30;;;;;;;6.15;3.85;;;31.00;44.80;;;;;;5033489;28;20024;-90
2023/07/02 11:04:06;;;;;;;7.85;3.45;;;30.90;46.20;;;;;;5033845;28;20029;-88
2023/07/02 11:06:33;;;;;;;7.25;3.13;;;30.80;46.40;;;;;;5034310;28;20069;-89
2023/07/02 11:09:01;;;;;;;7.53;3.85;;;30.80;47.80;;;;;;5034363;28;20033;-91
2023/07/02 11:11:27;;;;;;;11.63;3.92;;;30.80;49.10;;;;;;5035538;28;20348;-89
2023/07/02 11:13:53;;;;;;;5.30;3.25;;;30.80;47.60;;;;;;5035565;28;20032;-88
2023/07/02 11:16:27;;;;;;;6.22;4.03;;;30.80;48.30;;;;;;5035742;28;20029;-91
2023/07/02 11:18:53;;;;;;;12.98;3.42;;;30.70;48.70;;;;;;5043581;28;20037;-91
2023/07/02 11:21:19;;;;;;;5.38;3.15;;;30.70;48.50;;;;;;5036756;28;20106;-91
2023/07/02 11:23:45;;;;;;;6.35;3.33;;;30.70;49.60;;;;;;5035794;28;20068;-89
2023/07/02 11:26:11;;;;;;;5.68;3.00;;;30.60;48.90;;;;;;5035037;28;20030;-89
2023/07/02 11:28:48;;;;;;;9.50;3.15;;;30.70;49.10;;;;;;5035008;28;20124;-91
2023/07/02 11:31:23;;;;;;;4.45;3.28;;;30.70;50.50;;;;;;5035636;28;20037;-91
2023/07/02 11:33:49;;;;;;;6.00;3.03;;;30.70;50.60;;;;;;5034252;28;20025;-90
2023/07/02 11:38:22;;;;;;;5.35;3.70;;;30.60;49.40;;;;;;5008420;28;20380;-86
2023/07/02 11:40:48;;;;;;;5.18;3.03;;;30.60;51.40;;;;;;5005405;28;20087;-92
2023/07/02 11:43:14;;;;;;;8.00;2.95;;;30.60;52.10;;;;;;5006564;28;20034;-89
2023/07/02 11:45:40;;;;;;;5.65;3.00;;;30.60;48.60;;;;;;5005871;28;20506;-90
2023/07/02 11:48:06;;;;;;;4.30;3.33;;;30.60;49.20;;;;;;5005435;28;20048;-90
2023/07/02 11:50:31;;;;;;;6.60;3.13;;;30.50;50.00;;;;;;5005761;28;20030;-90
2023/07/02 11:52:57;;;;;;;6.90;2.55;;;30.50;48.90;;;;;;5004875;28;20401;-90
2023/07/02 11:55:23;;;;;;;9.25;2.63;;;30.50;47.50;;;;;;5005423;28;20388;-89
2023/07/02 11:57:49;;;;;;;7.45;3.05;;;30.50;47.50;;;;;;5004644;28;20038;-90
2023/07/02 12:00:15;;;;;;;5.65;2.75;;;30.40;46.10;;;;;;5005656;28;20030;-92
2023/07/02 12:02:41;;;;;;;4.78;2.92;;;30.40;45.90;;;;;;5005064;28;20552;-90
2023/07/02 12:05:07;;;;;;;7.45;3.17;;;30.30;45.30;;;;;;5004958;28;20519;-91
2023/07/02 12:07:33;;;;;;;6.72;2.53;;;30.30;45.70;;;;;;5004964;28;20055;-89
2023/07/02 12:09:59;;;;;;;10.00;3.03;;;30.30;44.80;;;;;;5005892;28;20087;-89
2023/07/02 12:12:24;;;;;;;9.63;2.38;;;30.30;46.30;;;;;;5006459;28;20079;-89
2023/07/02 12:14:50;;;;;;;4.45;2.42;;;30.20;46.70;;;;;;5005436;28;20108;-89
2023/07/02 12:17:16;;;;;;;6.80;2.58;;;30.20;47.80;;;;;;5005399;28;20452;-90
2023/07/02 12:19:41;;;;;;;5.75;2.70;;;30.20;47.60;;;;;;5004611;28;20048;-88
2023/07/02 12:22:07;;;;;;;3.63;2.28;;;30.20;48.20;;;;;;5004068;28;20066;-89
2023/07/02 12:24:33;;;;;;;5.78;2.17;;;30.30;47.70;;;;;;5005330;28;20051;-89
2023/07/02 12:26:59;;;;;;;8.38;3.15;;;30.20;48.10;;;;;;5004652;28;20034;-90
2023/07/02 12:29:24;;;;;;;6.72;2.78;;;30.20;48.20;;;;;;5006453;28;20048;-89
2023/07/02 12:31:50;;;;;;;4.07;2.90;;;30.20;48.90;;;;;;5004451;28;20033;-88
2023/07/02 12:34:16;;;;;;;7.30;2.65;;;30.20;49.50;;;;;;5004991;28;20117;-90
2023/07/02 12:36:42;;;;;;;3.70;2.58;;;30.30;49.60;;;;;;5005197;28;20046;-91
2023/07/02 12:39:07;;;;;;;5.75;2.83;;;30.30;48.10;;;;;;5004937;28;20023;-92
2023/07/02 12:41:34;;;;;;;8.95;3.40;;;30.20;48.00;;;;;;5007069;28;20042;-92
2023/07/02 12:43:59;;;;;;;9.05;3.05;;;30.20;48.90;;;;;;5004890;28;20050;-88
2023/07/02 12:46:25;;;;;;;4.25;2.35;;;30.20;49.60;;;;;;5004284;28;20061;-90